sensor_id;sensor_type;location;lat;lon;timestamp;pressure;altitude;pressure_sealevel;temperature;humidity
81822;BME280;72257;52.384;4.882;2024-01-30T00:00:21;119721.25;;;-145.99;nan
81822;BME280;72257;52.384;4.882;2024-01-30T00:02:46;119452.47;;;-145.99;nan
81822;BME280;72257;52.384;4.882;2024-01-30T00:05:12;119452.47;;;-145.99;nan
81822;BME280;72257;52.384;4.882;2024-01-30T00:07:37;119452.47;;;-145.99;nan
81822;BME280;72257;52.384;4.882;2024-01-30T00:10:03;119183.72;;;-145.99;nan
81822;BME280;72257;52.384;4.882;2024-01-30T00:12:28;119183.72;;;-145.99;nan
81822;BME280;72257;52.384;4.882;2024-01-30T00:14:53;119183.72;;;-145.99;nan
81822;BME280;72257;52.384;4.882;2024-01-30T00:17:19;118915.00;;;-145.99;nan
81822;BME280;72257;52.384;4.882;2024-01-30T00:19:46;118915.00;;;-145.99;nan
81822;BME280;72257;52.384;4.882;2024-01-30T00:22:11;118915.00;;;-145.99;nan
81822;BME280;72257;52.384;4.882;2024-01-30T00:24:36;118915.00;;;-145.99;nan
81822;BME280;72257;52.384;4.882;2024-01-30T00:27:02;118915.00;;;-145.99;nan
81822;BME280;72257;52.384;4.882;2024-01-30T00:29:27;118915.00;;;-145.99;nan
81822;BME280;72257;52.384;4.882;2024-01-30T00:31:56;118915.00;;;-145.99;nan
81822;BME280;72257;52.384;4.882;2024-01-30T00:34:21;118646.28;;;-145.99;nan
81822;BME280;72257;52.384;4.882;2024-01-30T00:36:47;118646.28;;;-145.99;nan
81822;BME280;72257;52.384;4.882;2024-01-30T00:39:12;118377.56;;;-145.99;nan
81822;BME280;72257;52.384;4.882;2024-01-30T00:41:37;118377.56;;;-145.99;nan
81822;BME280;72257;52.384;4.882;2024-01-30T00:44:03;118108.88;;;-145.99;nan
81822;BME280;72257;52.384;4.882;2024-01-30T00:46:28;118108.88;;;-145.99;nan
81822;BME280;72257;52.384;4.882;2024-01-30T00:48:54;117840.22;;;-145.99;nan
81822;BME280;72257;52.384;4.882;2024-01-30T00:51:19;117571.56;;;-145.99;nan
81822;BME280;72257;52.384;4.882;2024-01-30T00:53:45;117571.56;;;-145.99;nan
81822;BME280;72257;52.384;4.882;2024-01-30T00:56:10;117302.94;;;-145.99;nan
81822;BME280;72257;52.384;4.882;2024-01-30T00:58:35;117302.94;;;-145.99;nan
81822;BME280;72257;52.384;4.882;2024-01-30T01:01:01;117034.31;;;-145.99;nan
81822;BME280;72257;52.384;4.882;2024-01-30T01:03:26;117034.31;;;-145.99;nan
81822;BME280;72257;52.384;4.882;2024-01-30T01:05:51;116765.72;;;-145.99;nan
81822;BME280;72257;52.384;4.882;2024-01-30T01:08:17;116765.72;;;-145.99;nan
81822;BME280;72257;52.384;4.882;2024-01-30T01:10:43;116765.72;;;-145.99;nan
81822;BME280;72257;52.384;4.882;2024-01-30T01:13:08;116497.13;;;-145.99;nan
81822;BME280;72257;52.384;4.882;2024-01-30T01:15:33;116497.13;;;-145.99;nan
81822;BME280;72257;52.384;4.882;2024-01-30T01:17:59;116497.13;;;-145.99;nan
81822;BME280;72257;52.384;4.882;2024-01-30T01:20:24;116228.56;;;-145.99;nan
81822;BME280;72257;52.384;4.882;2024-01-30T01:22:49;116228.56;;;-145.99;nan
81822;BME280;72257;52.384;4.882;2024-01-30T01:25:15;115960.03;;;-145.99;nan
81822;BME280;72257;52.384;4.882;2024-01-30T01:27:40;115960.03;;;-145.99;nan
81822;BME280;72257;52.384;4.882;2024-01-30T01:30:10;115691.50;;;-145.99;nan
81822;BME280;72257;52.384;4.882;2024-01-30T01:32:36;115423.00;;;-145.99;nan
81822;BME280;72257;52.384;4.882;2024-01-30T01:35:03;115154.50;;;-145.99;nan
81822;BME280;72257;52.384;4.882;2024-01-30T01:37:31;115154.50;;;-145.99;nan
81822;BME280;72257;52.384;4.882;2024-01-30T01:39:56;114886.03;;;-145.99;nan
81822;BME280;72257;52.384;4.882;2024-01-30T01:42:21;114617.59;;;-145.99;nan
81822;BME280;72257;52.384;4.882;2024-01-30T01:44:47;114349.16;;;-145.99;nan
81822;BME280;72257;52.384;4.882;2024-01-30T01:47:13;114349.16;;;-145.99;nan
81822;BME280;72257;52.384;4.882;2024-01-30T01:49:38;114080.72;;;-145.99;nan
81822;BME280;72257;52.384;4.882;2024-01-30T01:52:04;114349.16;;;-145.99;nan
81822;BME280;72257;52.384;4.882;2024-01-30T01:54:30;114349.16;;;-145.99;nan
81822;BME280;72257;52.384;4.882;2024-01-30T01:56:55;114080.72;;;-145.99;nan
81822;BME280;72257;52.384;4.882;2024-01-30T01:59:22;114080.72;;;-145.99;nan
81822;BME280;72257;52.384;4.882;2024-01-30T02:01:48;114080.72;;;-145.99;nan
81822;BME280;72257;52.384;4.882;2024-01-30T02:04:15;114080.72;;;-145.99;nan
81822;BME280;72257;52.384;4.882;2024-01-30T02:06:41;114080.72;;;-145.99;nan
81822;BME280;72257;52.384;4.882;2024-01-30T02:09:06;113812.31;;;-145.99;nan
81822;BME280;72257;52.384;4.882;2024-01-30T02:11:32;114080.72;;;-145.99;nan
81822;BME280;72257;52.384;4.882;2024-01-30T02:14:02;114080.72;;;-145.99;nan
81822;BME280;72257;52.384;4.882;2024-01-30T02:16:27;114349.16;;;-145.99;nan
81822;BME280;72257;52.384;4.882;2024-01-30T02:18:53;114349.16;;;-145.99;nan
81822;BME280;72257;52.384;4.882;2024-01-30T02:21:19;114617.59;;;-145.99;nan
81822;BME280;72257;52.384;4.882;2024-01-30T02:23:46;114617.59;;;-145.99;nan
81822;BME280;72257;52.384;4.882;2024-01-30T02:26:12;114617.59;;;-145.99;nan
81822;BME280;72257;52.384;4.882;2024-01-30T02:28:38;114617.59;;;-145.99;nan
81822;BME280;72257;52.384;4.882;2024-01-30T02:31:04;114617.59;;;-145.99;nan
81822;BME280;72257;52.384;4.882;2024-01-30T02:33:29;114349.16;;;-145.99;nan
81822;BME280;72257;52.384;4.882;2024-01-30T02:35:54;114349.16;;;-145.99;nan
81822;BME280;72257;52.384;4.882;2024-01-30T02:38:20;114349.16;;;-145.99;nan
81822;BME280;72257;52.384;4.882;2024-01-30T02:40:45;114349.16;;;-145.99;nan
81822;BME280;72257;52.384;4.882;2024-01-30T02:43:11;114349.16;;;-145.99;nan
81822;BME280;72257;52.384;4.882;2024-01-30T02:45:36;114080.72;;;-145.99;nan
81822;BME280;72257;52.384;4.882;2024-01-30T02:48:01;114080.72;;;-145.99;nan
81822;BME280;72257;52.384;4.882;2024-01-30T02:50:27;114080.72;;;-145.99;nan
81822;BME280;72257;52.384;4.882;2024-01-30T02:52:52;114080.72;;;-145.99;nan
81822;BME280;72257;52.384;4.882;2024-01-30T02:55:18;114349.16;;;-145.99;nan
81822;BME280;72257;52.384;4.882;2024-01-30T02:57:43;114080.72;;;-145.99;nan
81822;BME280;72257;52.384;4.882;2024-01-30T03:00:09;114349.16;;;-145.99;nan
81822;BME280;72257;52.384;4.882;2024-01-30T03:02:35;114349.16;;;-145.99;nan
81822;BME280;72257;52.384;4.882;2024-01-30T03:05:01;114617.59;;;-145.99;nan
81822;BME280;72257;52.384;4.882;2024-01-30T03:07:26;114617.59;;;-145.99;nan
81822;BME280;72257;52.384;4.882;2024-01-30T03:09:51;114617.59;;;-145.99;nan
81822;BME280;72257;52.384;4.882;2024-01-30T03:12:17;114886.03;;;-145.99;nan
81822;BME280;72257;52.384;4.882;2024-01-30T03:14:43;114617.59;;;-145.99;nan
81822;BME280;72257;52.384;4.882;2024-01-30T03:17:08;114617.59;;;-145.99;nan
81822;BME280;72257;52.384;4.882;2024-01-30T03:19:33;114617.59;;;-145.99;nan
81822;BME280;72257;52.384;4.882;2024-01-30T03:21:59;114617.59;;;-145.99;nan
81822;BME280;72257;52.384;4.882;2024-01-30T03:24:24;114349.16;;;-145.99;nan
81822;BME280;72257;52.384;4.882;2024-01-30T03:26:49;114349.16;;;-145.99;nan
81822;BME280;72257;52.384;4.882;2024-01-30T03:29:15;113812.31;;;-145.99;nan
81822;BME280;72257;52.384;4.882;2024-01-30T03:31:40;113812.31;;;-145.99;nan
81822;BME280;72257;52.384;4.882;2024-01-30T03:34:06;113812.31;;;-145.99;nan
81822;BME280;72257;52.384;4.882;2024-01-30T03:36:31;113812.31;;;-145.99;nan
81822;BME280;72257;52.384;4.882;2024-01-30T03:38:59;114080.72;;;-145.99;nan
81822;BME280;72257;52.384;4.882;2024-01-30T03:41:24;114349.16;;;-145.99;nan
81822;BME280;72257;52.384;4.882;2024-01-30T03:43:50;114349.16;;;-145.99;nan
81822;BME280;72257;52.384;4.882;2024-01-30T03:46:15;114349.16;;;-145.99;nan
81822;BME280;72257;52.384;4.882;2024-01-30T03:48:40;114617.59;;;-145.99;nan
81822;BME280;72257;52.384;4.882;2024-01-30T03:51:06;114617.59;;;-145.99;nan
81822;BME280;72257;52.384;4.882;2024-01-30T03:53:31;114617.59;;;-145.99;nan
81822;BME280;72257;52.384;4.882;2024-01-30T03:55:56;114886.03;;;-145.99;nan
81822;BME280;72257;52.384;4.882;2024-01-30T03:58:22;114886.03;;;-145.99;nan
81822;BME280;72257;52.384;4.882;2024-01-30T04:00:47;114886.03;;;-145.99;nan
81822;BME280;72257;52.384;4.882;2024-01-30T04:03:14;114886.03;;;-145.99;nan
81822;BME280;72257;52.384;4.882;2024-01-30T04:05:40;114617.59;;;-145.99;nan
81822;BME280;72257;52.384;4.882;2024-01-30T04:08:06;114617.59;;;-145.99;nan
81822;BME280;72257;52.384;4.882;2024-01-30T04:10:31;114349.16;;;-145.99;nan
81822;BME280;72257;52.384;4.882;2024-01-30T04:12:56;114349.16;;;-145.99;nan
81822;BME280;72257;52.384;4.882;2024-01-30T04:15:22;114080.72;;;-145.99;nan
81822;BME280;72257;52.384;4.882;2024-01-30T04:17:47;114080.72;;;-145.99;nan
81822;BME280;72257;52.384;4.882;2024-01-30T04:20:15;114080.72;;;-145.99;nan
81822;BME280;72257;52.384;4.882;2024-01-30T04:22:45;114080.72;;;-145.99;nan
81822;BME280;72257;52.384;4.882;2024-01-30T04:25:12;114080.72;;;-145.99;nan
81822;BME280;72257;52.384;4.882;2024-01-30T04:27:37;114349.16;;;-145.99;nan
81822;BME280;72257;52.384;4.882;2024-01-30T04:30:03;114617.59;;;-145.99;nan
81822;BME280;72257;52.384;4.882;2024-01-30T04:32:29;114617.59;;;-145.99;nan
81822;BME280;72257;52.384;4.882;2024-01-30T04:34:54;114886.03;;;-145.99;nan
81822;BME280;72257;52.384;4.882;2024-01-30T04:37:20;114617.59;;;-145.99;nan
81822;BME280;72257;52.384;4.882;2024-01-30T04:39:45;114886.03;;;-145.99;nan
81822;BME280;72257;52.384;4.882;2024-01-30T04:42:10;114886.03;;;-145.99;nan
81822;BME280;72257;52.384;4.882;2024-01-30T04:44:35;114886.03;;;-145.99;nan
81822;BME280;72257;52.384;4.882;2024-01-30T04:47:01;114886.03;;;-145.99;nan
81822;BME280;72257;52.384;4.882;2024-01-30T04:49:27;114886.03;;;-145.99;nan
81822;BME280;72257;52.384;4.882;2024-01-30T04:51:52;114886.03;;;-145.99;nan
81822;BME280;72257;52.384;4.882;2024-01-30T04:54:18;114617.59;;;-145.99;nan
81822;BME280;72257;52.384;4.882;2024-01-30T04:56:43;114617.59;;;-145.99;nan
81822;BME280;72257;52.384;4.882;2024-01-30T04:59:08;114349.16;;;-145.99;nan
81822;BME280;72257;52.384;4.882;2024-01-30T05:01:34;114349.16;;;-145.99;nan
81822;BME280;72257;52.384;4.882;2024-01-30T05:03:59;114080.72;;;-145.99;nan
81822;BME280;72257;52.384;4.882;2024-01-30T05:06:26;114080.72;;;-145.99;nan
81822;BME280;72257;52.384;4.882;2024-01-30T05:08:52;114080.72;;;-145.99;nan
81822;BME280;72257;52.384;4.882;2024-01-30T05:11:17;113812.31;;;-145.99;nan
81822;BME280;72257;52.384;4.882;2024-01-30T05:13:43;113812.31;;;-145.99;nan
81822;BME280;72257;52.384;4.882;2024-01-30T05:16:08;114080.72;;;-145.99;nan
81822;BME280;72257;52.384;4.882;2024-01-30T05:18:33;114080.72;;;-145.99;nan
81822;BME280;72257;52.384;4.882;2024-01-30T05:20:59;114080.72;;;-145.99;nan
81822;BME280;72257;52.384;4.882;2024-01-30T05:23:24;114349.16;;;-145.99;nan
81822;BME280;72257;52.384;4.882;2024-01-30T05:25:50;114349.16;;;-145.99;nan
81822;BME280;72257;52.384;4.882;2024-01-30T05:28:15;114349.16;;;-145.99;nan
81822;BME280;72257;52.384;4.882;2024-01-30T05:30:40;114080.72;;;-145.99;nan
81822;BME280;72257;52.384;4.882;2024-01-30T05:33:06;114080.72;;;-145.99;nan
81822;BME280;72257;52.384;4.882;2024-01-30T05:35:31;114080.72;;;-145.99;nan
81822;BME280;72257;52.384;4.882;2024-01-30T05:37:57;113812.31;;;-145.99;nan
81822;BME280;72257;52.384;4.882;2024-01-30T05:40:22;114080.72;;;-145.99;nan
81822;BME280;72257;52.384;4.882;2024-01-30T05:42:48;114080.72;;;-145.99;nan
81822;BME280;72257;52.384;4.882;2024-01-30T05:45:13;114080.72;;;-145.99;nan
81822;BME280;72257;52.384;4.882;2024-01-30T05:47:38;114080.72;;;-145.99;nan
81822;BME280;72257;52.384;4.882;2024-01-30T05:50:04;114080.72;;;-145.99;nan
81822;BME280;72257;52.384;4.882;2024-01-30T05:52:30;114349.16;;;-145.99;nan
81822;BME280;72257;52.384;4.882;2024-01-30T05:54:55;114349.16;;;-145.99;nan
81822;BME280;72257;52.384;4.882;2024-01-30T05:57:20;114617.59;;;-145.99;nan
81822;BME280;72257;52.384;4.882;2024-01-30T05:59:46;114617.59;;;-145.99;nan
81822;BME280;72257;52.384;4.882;2024-01-30T06:02:13;115154.50;;;-145.99;nan
81822;BME280;72257;52.384;4.882;2024-01-30T06:04:38;115960.03;;;-145.99;nan
81822;BME280;72257;52.384;4.882;2024-01-30T06:07:04;115691.50;;;-145.99;nan
81822;BME280;72257;52.384;4.882;2024-01-30T06:09:31;115960.03;;;-145.99;nan
81822;BME280;72257;52.384;4.882;2024-01-30T06:11:57;115691.50;;;-145.99;nan
81822;BME280;72257;52.384;4.882;2024-01-30T06:14:22;115423.00;;;-145.99;nan
81822;BME280;72257;52.384;4.882;2024-01-30T06:16:48;115154.50;;;-145.99;nan
81822;BME280;72257;52.384;4.882;2024-01-30T06:19:13;114886.03;;;-145.99;nan
81822;BME280;72257;52.384;4.882;2024-01-30T06:21:38;115423.00;;;-145.99;nan
81822;BME280;72257;52.384;4.882;2024-01-30T06:24:04;115691.50;;;-145.99;nan
81822;BME280;72257;52.384;4.882;2024-01-30T06:26:31;115960.03;;;-145.99;nan
81822;BME280;72257;52.384;4.882;2024-01-30T06:28:56;116228.56;;;-145.99;nan
81822;BME280;72257;52.384;4.882;2024-01-30T06:31:21;116497.13;;;-145.99;nan
81822;BME280;72257;52.384;4.882;2024-01-30T06:33:47;116497.13;;;-145.99;nan
81822;BME280;72257;52.384;4.882;2024-01-30T06:36:13;116497.13;;;-145.99;nan
81822;BME280;72257;52.384;4.882;2024-01-30T06:38:39;116497.13;;;-145.99;nan
81822;BME280;72257;52.384;4.882;2024-01-30T06:41:04;116497.13;;;-145.99;nan
81822;BME280;72257;52.384;4.882;2024-01-30T06:43:30;116765.72;;;-145.99;nan
81822;BME280;72257;52.384;4.882;2024-01-30T06:45:55;116228.56;;;-145.99;nan
81822;BME280;72257;52.384;4.882;2024-01-30T06:48:20;116228.56;;;-145.99;nan
81822;BME280;72257;52.384;4.882;2024-01-30T06:50:46;116497.13;;;-145.99;nan
81822;BME280;72257;52.384;4.882;2024-01-30T06:53:13;115691.50;;;-145.99;nan
81822;BME280;72257;52.384;4.882;2024-01-30T06:55:38;115691.50;;;-145.99;nan
81822;BME280;72257;52.384;4.882;2024-01-30T06:58:03;115960.03;;;-145.99;nan
81822;BME280;72257;52.384;4.882;2024-01-30T07:00:29;116765.72;;;-145.99;nan
81822;BME280;72257;52.384;4.882;2024-01-30T07:02:54;116228.56;;;-145.99;nan
81822;BME280;72257;52.384;4.882;2024-01-30T07:05:19;115960.03;;;-145.99;nan
81822;BME280;72257;52.384;4.882;2024-01-30T07:07:46;115691.50;;;-145.99;nan
81822;BME280;72257;52.384;4.882;2024-01-30T07:10:12;115423.00;;;-145.99;nan
81822;BME280;72257;52.384;4.882;2024-01-30T07:12:37;115154.50;;;-145.99;nan
81822;BME280;72257;52.384;4.882;2024-01-30T07:15:03;114886.03;;;-145.99;nan
81822;BME280;72257;52.384;4.882;2024-01-30T07:17:29;114617.59;;;-145.99;nan
81822;BME280;72257;52.384;4.882;2024-01-30T07:19:54;114617.59;;;-145.99;nan
81822;BME280;72257;52.384;4.882;2024-01-30T07:22:19;114349.16;;;-145.99;nan
81822;BME280;72257;52.384;4.882;2024-01-30T07:24:45;113812.31;;;-145.99;nan
81822;BME280;72257;52.384;4.882;2024-01-30T07:27:12;113543.94;;;-145.99;nan
81822;BME280;72257;52.384;4.882;2024-01-30T07:29:38;113275.56;;;-145.99;nan
81822;BME280;72257;52.384;4.882;2024-01-30T07:32:03;113007.22;;;-145.99;nan
81822;BME280;72257;52.384;4.882;2024-01-30T07:34:29;112738.88;;;-145.99;nan
81822;BME280;72257;52.384;4.882;2024-01-30T07:36:54;112738.88;;;-145.99;nan
81822;BME280;72257;52.384;4.882;2024-01-30T07:39:19;112738.88;;;-145.99;nan
81822;BME280;72257;52.384;4.882;2024-01-30T07:41:45;112470.56;;;-145.99;nan
81822;BME280;72257;52.384;4.882;2024-01-30T07:44:10;112470.56;;;-145.99;nan
81822;BME280;72257;52.384;4.882;2024-01-30T07:46:35;112202.28;;;-145.99;nan
81822;BME280;72257;52.384;4.882;2024-01-30T07:49:00;111934.00;;;-145.99;nan
81822;BME280;72257;52.384;4.882;2024-01-30T07:51:26;111934.00;;;-145.99;nan
81822;BME280;72257;52.384;4.882;2024-01-30T07:53:53;111665.75;;;-145.99;nan
81822;BME280;72257;52.384;4.882;2024-01-30T07:56:18;111397.50;;;-145.99;nan
81822;BME280;72257;52.384;4.882;2024-01-30T07:58:44;111129.28;;;-145.99;nan
81822;BME280;72257;52.384;4.882;2024-01-30T08:01:10;111129.28;;;-145.99;nan
81822;BME280;72257;52.384;4.882;2024-01-30T08:03:35;111129.28;;;-145.99;nan
81822;BME280;72257;52.384;4.882;2024-01-30T08:06:02;111129.28;;;-145.99;nan
81822;BME280;72257;52.384;4.882;2024-01-30T08:08:28;110861.06;;;-145.99;nan
81822;BME280;72257;52.384;4.882;2024-01-30T08:10:53;111129.28;;;-145.99;nan
81822;BME280;72257;52.384;4.882;2024-01-30T08:13:19;111129.28;;;-145.99;nan
81822;BME280;72257;52.384;4.882;2024-01-30T08:15:44;110861.06;;;-145.99;nan
81822;BME280;72257;52.384;4.882;2024-01-30T08:18:09;110592.88;;;-145.99;nan
81822;BME280;72257;52.384;4.882;2024-01-30T08:20:35;110861.06;;;-145.99;nan
81822;BME280;72257;52.384;4.882;2024-01-30T08:23:00;110592.88;;;-145.99;nan
81822;BME280;72257;52.384;4.882;2024-01-30T08:25:26;110592.88;;;-145.99;nan
81822;BME280;72257;52.384;4.882;2024-01-30T08:27:51;110324.69;;;-145.99;nan
81822;BME280;72257;52.384;4.882;2024-01-30T08:30:17;110592.88;;;-145.99;nan
81822;BME280;72257;52.384;4.882;2024-01-30T08:32:42;111397.50;;;-145.99;nan
81822;BME280;72257;52.384;4.882;2024-01-30T08:35:07;111665.75;;;-145.99;nan
81822;BME280;72257;52.384;4.882;2024-01-30T08:37:34;111934.00;;;-145.99;nan
81822;BME280;72257;52.384;4.882;2024-01-30T08:39:59;112202.28;;;-145.99;nan
81822;BME280;72257;52.384;4.882;2024-01-30T08:42:25;112202.28;;;-145.99;nan
81822;BME280;72257;52.384;4.882;2024-01-30T08:44:51;112738.88;;;-145.99;nan
81822;BME280;72257;52.384;4.882;2024-01-30T08:47:18;112470.56;;;-145.99;nan
81822;BME280;72257;52.384;4.882;2024-01-30T08:49:44;112202.28;;;-145.99;nan
81822;BME280;72257;52.384;4.882;2024-01-30T08:52:10;112202.28;;;-145.99;nan
81822;BME280;72257;52.384;4.882;2024-01-30T08:54:35;112202.28;;;-145.99;nan
81822;BME280;72257;52.384;4.882;2024-01-30T08:57:01;111934.00;;;-145.99;nan
81822;BME280;72257;52.384;4.882;2024-01-30T08:59:26;112738.88;;;-145.99;nan
81822;BME280;72257;52.384;4.882;2024-01-30T09:01:51;113543.94;;;-145.99;nan
81822;BME280;72257;52.384;4.882;2024-01-30T09:04:20;113275.56;;;-145.99;nan
81822;BME280;72257;52.384;4.882;2024-01-30T09:06:45;113543.94;;;-145.99;nan
81822;BME280;72257;52.384;4.882;2024-01-30T09:09:11;113543.94;;;-145.99;nan
81822;BME280;72257;52.384;4.882;2024-01-30T09:11:36;113543.94;;;-145.99;nan
81822;BME280;72257;52.384;4.882;2024-01-30T09:14:02;112470.56;;;-145.99;nan
81822;BME280;72257;52.384;4.882;2024-01-30T09:16:27;112202.28;;;-145.99;nan
81822;BME280;72257;52.384;4.882;2024-01-30T09:18:52;111665.75;;;-145.99;nan
81822;BME280;72257;52.384;4.882;2024-01-30T09:21:18;111129.28;;;-145.99;nan
81822;BME280;72257;52.384;4.882;2024-01-30T09:23:43;110861.06;;;-145.99;nan
81822;BME280;72257;52.384;4.882;2024-01-30T09:26:08;111397.50;;;-145.99;nan
81822;BME280;72257;52.384;4.882;2024-01-30T09:28:34;111934.00;;;-145.99;nan
81822;BME280;72257;52.384;4.882;2024-01-30T09:30:59;113007.22;;;-145.99;nan
81822;BME280;72257;52.384;4.882;2024-01-30T09:33:27;113543.94;;;-145.99;nan
81822;BME280;72257;52.384;4.882;2024-01-30T09:35:55;114349.16;;;-145.99;nan
81822;BME280;72257;52.384;4.882;2024-01-30T09:38:20;114886.03;;;-145.99;nan
81822;BME280;72257;52.384;4.882;2024-01-30T09:40:53;115423.00;;;-145.99;nan
81822;BME280;72257;52.384;4.882;2024-01-30T09:43:22;115691.50;;;-145.99;nan
81822;BME280;72257;52.384;4.882;2024-01-30T09:45:48;115960.03;;;-145.99;nan
81822;BME280;72257;52.384;4.882;2024-01-30T09:48:15;115960.03;;;-145.99;nan
81822;BME280;72257;52.384;4.882;2024-01-30T09:50:41;115691.50;;;-145.99;nan
81822;BME280;72257;52.384;4.882;2024-01-30T09:53:07;114886.03;;;-145.99;nan
81822;BME280;72257;52.384;4.882;2024-01-30T09:55:35;114080.72;;;-145.99;nan
81822;BME280;72257;52.384;4.882;2024-01-30T09:58:01;113007.22;;;-145.99;nan
81822;BME280;72257;52.384;4.882;2024-01-30T10:00:26;111934.00;;;-145.99;nan
81822;BME280;72257;52.384;4.882;2024-01-30T10:02:52;111129.28;;;-145.99;nan
81822;BME280;72257;52.384;4.882;2024-01-30T10:05:19;109788.41;;;-145.99;nan
81822;BME280;72257;52.384;4.882;2024-01-30T10:07:53;108984.09;;;-145.99;nan
81822;BME280;72257;52.384;4.882;2024-01-30T10:10:25;108447.97;;;-145.99;nan
81822;BME280;72257;52.384;4.882;2024-01-30T10:12:51;107108.00;;;-145.99;nan
81822;BME280;72257;52.384;4.882;2024-01-30T10:15:20;105500.59;;;-145.99;nan
81822;BME280;72257;52.384;4.882;2024-01-30T10:17:45;103893.84;;;-145.99;nan
81822;BME280;72257;52.384;4.882;2024-01-30T10:20:11;102555.34;;;-145.99;nan
81822;BME280;72257;52.384;4.882;2024-01-30T10:22:37;102555.34;;;-145.99;nan
81822;BME280;72257;52.384;4.882;2024-01-30T10:25:02;103090.69;;;-145.99;nan
81822;BME280;72257;52.384;4.882;2024-01-30T10:27:28;104964.94;;;-145.99;nan
81822;BME280;72257;52.384;4.882;2024-01-30T10:29:55;105768.47;;;-145.99;nan
81822;BME280;72257;52.384;4.882;2024-01-30T10:32:20;106572.13;;;-145.99;nan
81822;BME280;72257;52.384;4.882;2024-01-30T10:34:46;108716.03;;;-145.99;nan
81822;BME280;72257;52.384;4.882;2024-01-30T10:37:12;109252.19;;;-145.99;nan
81822;BME280;72257;52.384;4.882;2024-01-30T10:39:40;110592.88;;;-145.99;nan
81822;BME280;72257;52.384;4.882;2024-01-30T10:42:07;111397.50;;;-145.99;nan
81822;BME280;72257;52.384;4.882;2024-01-30T10:47:28;113812.31;;;-145.99;nan
81822;BME280;72257;52.384;4.882;2024-01-30T10:49:55;114886.03;;;-145.99;nan
81822;BME280;72257;52.384;4.882;2024-01-30T10:52:23;115154.50;;;-145.99;nan
81822;BME280;72257;52.384;4.882;2024-01-30T10:54:49;115154.50;;;-145.99;nan
81822;BME280;72257;52.384;4.882;2024-01-30T10:57:15;115154.50;;;-145.99;nan
81822;BME280;72257;52.384;4.882;2024-01-30T10:59:42;114886.03;;;-145.99;nan
81822;BME280;72257;52.384;4.882;2024-01-30T11:02:09;115960.03;;;-145.99;nan
81822;BME280;72257;52.384;4.882;2024-01-30T11:04:40;117302.94;;;-145.99;nan
81822;BME280;72257;52.384;4.882;2024-01-30T11:07:23;118646.28;;;-145.99;nan
81822;BME280;72257;52.384;4.882;2024-01-30T11:09:53;119452.47;;;-145.99;nan
81822;BME280;72257;52.384;4.882;2024-01-30T11:12:22;120258.84;;;-145.99;nan
81822;BME280;72257;52.384;4.882;2024-01-30T11:14:49;120796.53;;;-145.99;nan
81822;BME280;72257;52.384;4.882;2024-01-30T11:17:14;121603.16;;;-145.99;nan
81822;BME280;72257;52.384;4.882;2024-01-30T11:19:41;122141.00;;;-145.99;nan
81822;BME280;72257;52.384;4.882;2024-01-30T11:22:07;122141.00;;;-145.99;nan
81822;BME280;72257;52.384;4.882;2024-01-30T11:24:40;121603.16;;;-145.99;nan
81822;BME280;72257;52.384;4.882;2024-01-30T11:27:09;120258.84;;;-145.99;nan
81822;BME280;72257;52.384;4.882;2024-01-30T11:29:35;119183.72;;;-145.99;nan
81822;BME280;72257;52.384;4.882;2024-01-30T11:32:01;118377.56;;;-145.99;nan
81822;BME280;72257;52.384;4.882;2024-01-30T11:34:27;117571.56;;;-145.99;nan
81822;BME280;72257;52.384;4.882;2024-01-30T11:36:57;117034.31;;;-145.99;nan
81822;BME280;72257;52.384;4.882;2024-01-30T11:39:27;116228.56;;;-145.99;nan
81822;BME280;72257;52.384;4.882;2024-01-30T11:41:54;115960.03;;;-145.99;nan
81822;BME280;72257;52.384;4.882;2024-01-30T11:44:20;115691.50;;;-145.99;nan
81822;BME280;72257;52.384;4.882;2024-01-30T11:46:50;115423.00;;;-145.99;nan
81822;BME280;72257;52.384;4.882;2024-01-30T11:49:16;114617.59;;;-145.99;nan
81822;BME280;72257;52.384;4.882;2024-01-30T11:51:43;114349.16;;;-145.99;nan
81822;BME280;72257;52.384;4.882;2024-01-30T11:54:08;114080.72;;;-145.99;nan
81822;BME280;72257;52.384;4.882;2024-01-30T11:56:34;113007.22;;;-145.99;nan
81822;BME280;72257;52.384;4.882;2024-01-30T11:58:59;112470.56;;;-145.99;nan
81822;BME280;72257;52.384;4.882;2024-01-30T12:01:27;111934.00;;;-145.99;nan
81822;BME280;72257;52.384;4.882;2024-01-30T12:03:53;111665.75;;;-145.99;nan
81822;BME280;72257;52.384;4.882;2024-01-30T12:06:18;112470.56;;;-145.99;nan
81822;BME280;72257;52.384;4.882;2024-01-30T12:08:58;113275.56;;;-145.99;nan
81822;BME280;72257;52.384;4.882;2024-01-30T12:11:24;114349.16;;;-145.99;nan
81822;BME280;72257;52.384;4.882;2024-01-30T12:13:52;115154.50;;;-145.99;nan
81822;BME280;72257;52.384;4.882;2024-01-30T12:16:18;116228.56;;;-145.99;nan
81822;BME280;72257;52.384;4.882;2024-01-30T12:18:43;117034.31;;;-145.99;nan
81822;BME280;72257;52.384;4.882;2024-01-30T12:21:08;117840.22;;;-145.99;nan
81822;BME280;72257;52.384;4.882;2024-01-30T12:23:35;118646.28;;;-145.99;nan
81822;BME280;72257;52.384;4.882;2024-01-30T12:26:01;119452.47;;;-145.99;nan
81822;BME280;72257;52.384;4.882;2024-01-30T12:28:27;119452.47;;;-145.99;nan
81822;BME280;72257;52.384;4.882;2024-01-30T12:30:56;119452.47;;;-145.99;nan
81822;BME280;72257;52.384;4.882;2024-01-30T12:33:26;119183.72;;;-145.99;nan
81822;BME280;72257;52.384;4.882;2024-01-30T12:35:51;119183.72;;;-145.99;nan
81822;BME280;72257;52.384;4.882;2024-01-30T12:38:17;119452.47;;;-145.99;nan
81822;BME280;72257;52.384;4.882;2024-01-30T12:40:43;119721.25;;;-145.99;nan
81822;BME280;72257;52.384;4.882;2024-01-30T12:43:08;118915.00;;;-145.99;nan
81822;BME280;72257;52.384;4.882;2024-01-30T12:45:34;118377.56;;;-145.99;nan